Terminal Aerodrome Forecast
Issued by NWS Atlanta, GA

Home | Current Version | Previous Version | Text Only | Print | Product List | Glossary On
Versions: 1 2 3 4 5 6 7 8 9 10 11 12 13 14 15 16 17 18 19 20 21 22 23 24 25 26 27 28 29 30 31 32 33 34 35 36 37 38 39 40 41 42 43 44 45
000
FTUS42 KFFC 230333 AAC
TAFATL
TAF AMD
KATL 230333Z 2304/2406 25010G20KT P6SM SCT006 BKN015
     FM230500 26012G25KT 5SM -RA BR BKN009
     FM231100 30015G25KT P6SM BKN009
     FM231500 31020G30KT P6SM BKN015
     FM232000 31015G25KT P6SM SCT015 BKN035
     FM240400 31015KT P6SM BKN020=

USA.gov is the U.S. government's official web portal to all federal, state and local government web resources and services.